Time;durP1;ratioP1;P1;durP2;ratioP2;P2;SDS_P1;SDS_P2;PMS_P1;PMS_P2;Temp;Humidity;BMP_temperature;BMP_pressure;BME280_temperature;BME280_humidity;BME280_pressure;Samples;Min_cycle;Max_cycle;Signal;HPM_P1;HPM_P2
2022/10/31 00:00:24;;;;;;;20.88;8.38;;;23.00;99.90;;;;;;5053904;28;20045;-61
2022/10/31 00:02:49;;;;;;;26.35;9.73;;;23.00;99.90;;;;;;5052811;28;20039;-61
2022/10/31 00:05:15;;;;;;;25.35;9.23;;;23.00;99.90;;;;;;5054178;28;20489;-61
2022/10/31 00:07:41;;;;;;;30.95;10.20;;;23.00;99.90;;;;;;5036250;28;20028;-61
2022/10/31 00:10:07;;;;;;;21.40;9.13;;;23.00;99.90;;;;;;5053884;28;20035;-61
2022/10/31 00:12:33;;;;;;;22.35;8.15;;;23.00;99.90;;;;;;5053895;28;20436;-61
2022/10/31 00:14:59;;;;;;;24.70;9.25;;;23.00;99.90;;;;;;5053837;28;20142;-61
2022/10/31 00:17:24;;;;;;;24.27;8.88;;;23.00;99.90;;;;;;5052509;28;20021;-61
2022/10/31 00:19:50;;;;;;;23.42;9.27;;;23.00;99.90;;;;;;5053632;28;20032;-61
2022/10/31 00:22:16;;;;;;;23.67;8.93;;;23.00;99.90;;;;;;5053781;28;20028;-61
2022/10/31 00:24:42;;;;;;;22.15;8.10;;;23.00;99.90;;;;;;5053656;28;20104;-60
2022/10/31 00:27:07;;;;;;;23.42;8.68;;;23.00;99.90;;;;;;5053585;28;20104;-61
2022/10/31 00:29:33;;;;;;;20.77;10.13;;;23.00;99.90;;;;;;5053677;28;20104;-61
2022/10/31 00:31:59;;;;;;;24.48;9.10;;;22.90;99.90;;;;;;5053412;28;20100;-60
2022/10/31 00:34:24;;;;;;;18.25;8.27;;;23.00;99.90;;;;;;5053685;28;20055;-61
2022/10/31 00:36:50;;;;;;;29.30;8.82;;;23.00;99.90;;;;;;5053419;28;20021;-60
2022/10/31 00:39:16;;;;;;;19.90;8.43;;;23.00;99.90;;;;;;5053552;28;20358;-60
2022/10/31 00:41:42;;;;;;;23.88;8.38;;;22.90;99.90;;;;;;5051806;28;20394;-60
2022/10/31 00:44:07;;;;;;;27.88;9.68;;;23.00;99.90;;;;;;5053367;28;20032;-60
2022/10/31 00:46:33;;;;;;;16.48;8.13;;;22.90;99.90;;;;;;5035652;28;20025;-61
2022/10/31 00:48:59;;;;;;;22.98;8.80;;;22.90;99.90;;;;;;5053374;28;20021;-60
2022/10/31 00:51:25;;;;;;;19.00;8.43;;;23.00;99.90;;;;;;5053069;28;20136;-60
2022/10/31 00:53:50;;;;;;;18.98;8.38;;;22.90;99.90;;;;;;5053093;28;20052;-60
2022/10/31 00:56:16;;;;;;;16.77;7.55;;;22.90;99.90;;;;;;5053194;28;20040;-60
2022/10/31 00:58:42;;;;;;;25.88;8.38;;;22.90;99.90;;;;;;5053270;28;20014;-60
2022/10/31 01:01:07;;;;;;;16.52;7.43;;;22.90;99.90;;;;;;5053521;28;20440;-60
2022/10/31 01:03:33;;;;;;;20.75;9.15;;;22.90;99.90;;;;;;5051928;28;20025;-60
2022/10/31 01:06:02;;;;;;;19.48;7.78;;;22.90;99.90;;;;;;5035127;28;20465;-60
2022/10/31 01:08:28;;;;;;;21.55;8.32;;;22.90;99.90;;;;;;5035227;28;20032;-61
2022/10/31 01:10:59;;;;;;;21.27;8.75;;;22.90;99.90;;;;;;5053080;28;20461;-61
2022/10/31 01:13:25;;;;;;;20.73;8.23;;;22.90;99.90;;;;;;5053018;28;20025;-61
2022/10/31 01:15:56;;;;;;;23.55;8.90;;;22.90;99.90;;;;;;5053212;28;20029;-59
2022/10/31 01:18:22;;;;;;;20.10;7.80;;;22.90;99.90;;;;;;5051556;28;20021;-59
2022/10/31 01:20:47;;;;;;;17.42;8.55;;;22.90;99.90;;;;;;5052789;28;20404;-60
2022/10/31 01:23:13;;;;;;;14.85;8.60;;;22.90;99.90;;;;;;5053017;28;20024;-60
2022/10/31 01:25:39;;;;;;;20.92;7.18;;;22.90;99.90;;;;;;5052819;28;20100;-62
2022/10/31 01:28:04;;;;;;;14.63;8.10;;;22.90;99.90;;;;;;5052860;28;20013;-60
2022/10/31 01:30:31;;;;;;;17.75;7.80;;;22.90;99.90;;;;;;5052939;28;20029;-60
2022/10/31 01:32:57;;;;;;;19.73;7.63;;;22.90;99.90;;;;;;5052901;28;20163;-61
2022/10/31 01:35:23;;;;;;;18.65;8.55;;;22.90;99.90;;;;;;5052663;28;20100;-61
2022/10/31 01:37:48;;;;;;;19.50;8.38;;;22.90;99.90;;;;;;5034788;28;20429;-60
2022/10/31 01:40:14;;;;;;;18.23;8.05;;;22.90;99.90;;;;;;5052733;28;20037;-60
2022/10/31 01:42:40;;;;;;;20.08;8.27;;;22.90;99.90;;;;;;5052850;28;20057;-61
2022/10/31 01:45:09;;;;;;;24.35;8.07;;;22.90;99.90;;;;;;5052850;28;20404;-61
2022/10/31 01:47:45;;;;;;;23.67;9.25;;;22.90;99.90;;;;;;5052541;28;20102;-60
2022/10/31 01:50:27;;;;;;;26.45;9.73;;;22.90;99.90;;;;;;5034981;28;20021;-61
2022/10/31 01:52:54;;;;;;;22.05;9.98;;;22.90;99.90;;;;;;5053377;28;20393;-60
2022/10/31 01:55:40;;;;;;;22.52;8.43;;;22.90;99.90;;;;;;5056474;28;20033;-60
2022/10/31 01:58:23;;;;;;;25.50;9.43;;;22.90;99.90;;;;;;5055094;28;20032;-60
2022/10/31 02:00:52;;;;;;;18.05;8.70;;;22.90;99.90;;;;;;5094409;22;20420;-47
2022/10/31 02:03:20;;;;;;;19.52;7.88;;;22.90;99.90;;;;;;5078485;28;20028;-47
2022/10/31 02:05:46;;;;;;;18.75;8.43;;;22.90;99.90;;;;;;5078497;28;20487;-47
2022/10/31 02:08:33;;;;;;;18.38;9.18;;;22.90;99.90;;;;;;5096439;28;20028;-47
2022/10/31 02:11:00;;;;;;;24.65;9.32;;;22.90;99.90;;;;;;5096399;28;20036;-47
2022/10/31 02:13:27;;;;;;;22.40;9.10;;;22.90;99.90;;;;;;5096436;28;20026;-47
2022/10/31 02:15:57;;;;;;;27.33;9.15;;;22.90;99.90;;;;;;5096482;28;20130;-48
2022/10/31 02:18:25;;;;;;;22.40;8.70;;;22.90;99.90;;;;;;5078197;28;20035;-48
2022/10/31 02:21:12;;;;;;;21.73;8.93;;;22.90;99.90;;;;;;5096308;28;20027;-48
2022/10/31 02:24:02;;;;;;;20.83;9.23;;;22.90;99.90;;;;;;5096387;28;20031;-47
2022/10/31 02:26:44;;;;;;;17.88;8.50;;;22.90;99.90;;;;;;5096181;28;20024;-47
2022/10/31 02:29:28;;;;;;;25.58;9.82;;;22.90;99.90;;;;;;5096289;28;20043;-48
2022/10/31 02:32:02;;;;;;;22.90;8.77;;;22.90;99.90;;;;;;5096077;28;20036;-48
2022/10/31 02:34:43;;;;;;;15.95;7.55;;;22.90;99.90;;;;;;5096175;28;20499;-47
2022/10/31 02:37:20;;;;;;;18.67;8.73;;;22.90;99.90;;;;;;5096133;28;20028;-47
2022/10/31 02:39:57;;;;;;;16.73;8.98;;;22.80;99.90;;;;;;5096128;28;20073;-47
2022/10/31 02:42:48;;;;;;;24.05;9.20;;;22.90;99.90;;;;;;5095946;28;20043;-48
2022/10/31 02:45:38;;;;;;;23.58;9.82;;;22.90;99.90;;;;;;5095949;28;20042;-47
2022/10/31 02:48:10;;;;;;;25.42;8.70;;;22.80;99.90;;;;;;5095353;28;20040;-48
2022/10/31 02:50:42;;;;;;;17.52;9.00;;;22.80;99.90;;;;;;5095828;28;20438;-48
2022/10/31 02:53:08;;;;;;;23.85;8.95;;;22.80;99.90;;;;;;5095722;28;20029;-47
2022/10/31 02:55:33;;;;;;;18.58;8.48;;;22.80;99.90;;;;;;5095518;28;20020;-47
2022/10/31 02:58:13;;;;;;;24.08;10.02;;;22.80;99.90;;;;;;5095574;28;20024;-47
2022/10/31 03:01:12;;;;;;;19.95;9.63;;;22.80;99.90;;;;;;5083942;22;20077;-48
2022/10/31 03:04:03;;;;;;;21.60;10.27;;;22.80;99.90;;;;;;5006904;28;20103;-48
2022/10/31 03:06:39;;;;;;;21.48;9.52;;;22.80;99.90;;;;;;5015543;28;20029;-48
2022/10/31 03:09:20;;;;;;;23.95;10.35;;;22.80;99.90;;;;;;5031005;28;20026;-48
2022/10/31 03:12:00;;;;;;;20.77;9.05;;;22.80;99.90;;;;;;5015464;28;20022;-49
2022/10/31 03:14:52;;;;;;;22.23;9.10;;;22.80;99.90;;;;;;5015539;28;20073;-48
2022/10/31 03:17:26;;;;;;;22.15;9.25;;;22.80;99.90;;;;;;5015587;28;20060;-48
2022/10/31 03:19:56;;;;;;;20.58;10.20;;;22.80;99.90;;;;;;5015370;28;20434;-48
2022/10/31 03:22:28;;;;;;;23.80;10.25;;;22.80;99.90;;;;;;5015087;28;20038;-48
2022/10/31 03:24:56;;;;;;;23.55;9.60;;;22.80;99.90;;;;;;5015146;28;20110;-48
2022/10/31 03:27:27;;;;;;;16.73;8.45;;;22.80;99.90;;;;;;5015101;28;20040;-48
2022/10/31 03:29:55;;;;;;;22.80;9.45;;;22.80;99.90;;;;;;5015335;28;20030;-48
2022/10/31 03:32:48;;;;;;;23.80;8.98;;;22.80;99.90;;;;;;5015014;28;20109;-48
2022/10/31 03:35:17;;;;;;;25.08;9.30;;;22.80;99.90;;;;;;5015079;28;20080;-48
2022/10/31 03:37:44;;;;;;;20.05;9.57;;;22.80;99.90;;;;;;5014972;28;20041;-48
2022/10/31 03:40:13;;;;;;;20.40;9.73;;;22.80;99.90;;;;;;5014664;28;20033;-48
2022/10/31 03:42:43;;;;;;;22.23;8.63;;;22.80;99.90;;;;;;5014821;28;20053;-48
2022/10/31 03:45:25;;;;;;;18.23;8.68;;;22.70;99.90;;;;;;5014787;28;20105;-48
2022/10/31 03:47:53;;;;;;;22.85;8.73;;;22.70;99.90;;;;;;5014630;28;20101;-49
2022/10/31 03:50:20;;;;;;;14.68;8.35;;;22.70;99.90;;;;;;5014660;28;20030;-49
2022/10/31 03:53:09;;;;;;;27.83;9.15;;;22.70;99.90;;;;;;5014666;28;20018;-48
2022/10/31 03:56:06;;;;;;;22.17;9.68;;;22.70;99.90;;;;;;5013382;28;20026;-48
2022/10/31 03:58:44;;;;;;;22.13;8.95;;;22.70;99.90;;;;;;5014169;28;20034;-48
2022/10/31 04:01:15;;;;;;;17.83;8.38;;;22.70;99.90;;;;;;5058885;23;20504;-61
2022/10/31 04:03:42;;;;;;;24.05;9.75;;;22.70;99.90;;;;;;5074116;28;20031;-62
2022/10/31 04:06:11;;;;;;;29.27;10.32;;;22.70;99.90;;;;;;5074166;28;20047;-62
2022/10/31 04:08:49;;;;;;;23.55;9.18;;;22.70;99.90;;;;;;5074085;28;20021;-62
2022/10/31 04:11:18;;;;;;;19.77;9.05;;;22.70;99.90;;;;;;5074035;28;20476;-60
2022/10/31 04:13:45;;;;;;;21.98;9.27;;;22.70;99.90;;;;;;5073872;28;20024;-59
2022/10/31 04:16:12;;;;;;;;;;;22.70;99.90;;;;;;5073778;28;20016;-60
2022/10/31 04:18:37;;;;;;;19.58;9.52;;;22.60;99.90;;;;;;5073891;28;19905;-60
2022/10/31 04:21:06;;;;;;;20.15;9.02;;;22.70;99.90;;;;;;5073599;28;20044;-60
2022/10/31 04:23:33;;;;;;;15.43;8.63;;;22.60;99.90;;;;;;5073591;28;20020;-60
2022/10/31 04:25:59;;;;;;;23.08;9.98;;;22.60;99.90;;;;;;5073688;28;20025;-60
2022/10/31 04:28:24;;;;;;;27.05;9.23;;;22.60;99.90;;;;;;5073805;28;20476;-60
2022/10/31 04:30:50;;;;;;;18.38;9.15;;;22.60;99.90;;;;;;5073673;28;20021;-60
2022/10/31 04:33:17;;;;;;;17.60;8.90;;;22.60;99.90;;;;;;5073573;28;20021;-60
2022/10/31 04:35:43;;;;;;;25.73;9.45;;;22.60;99.90;;;;;;5073622;28;20020;-60
2022/10/31 04:38:08;;;;;;;27.70;10.45;;;22.70;99.90;;;;;;5073258;28;20055;-60
2022/10/31 04:40:34;;;;;;;20.25;9.25;;;22.70;99.90;;;;;;5073359;28;20043;-61
2022/10/31 04:43:00;;;;;;;18.20;10.50;;;22.70;99.90;;;;;;5073423;28;20103;-61
2022/10/31 04:45:25;;;;;;;20.08;9.88;;;22.70;99.90;;;;;;5073165;28;20099;-60
2022/10/31 04:47:51;;;;;;;22.13;10.20;;;22.70;99.90;;;;;;5071176;28;20418;-61
2022/10/31 04:50:17;;;;;;;18.67;10.38;;;22.80;99.90;;;;;;5073064;28;20106;-61
2022/10/31 04:52:44;;;;;;;23.23;10.27;;;22.80;99.90;;;;;;5073011;28;20013;-61
2022/10/31 04:55:11;;;;;;;17.77;10.13;;;22.80;99.90;;;;;;5088540;28;20028;-62
2022/10/31 04:57:42;;;;;;;17.10;8.50;;;22.80;99.90;;;;;;5071494;28;20031;-62
2022/10/31 05:00:09;;;;;;;17.35;9.70;;;22.80;99.90;;;;;;5085022;22;20508;-48
2022/10/31 05:02:42;;;;;;;18.33;8.65;;;22.80;99.90;;;;;;5073348;28;20166;-48
2022/10/31 05:05:08;;;;;;;23.17;12.35;;;22.80;99.90;;;;;;5057928;28;20054;-48
2022/10/31 05:07:37;;;;;;;23.67;11.00;;;22.80;99.90;;;;;;5072946;28;20115;-49
2022/10/31 05:10:03;;;;;;;23.83;10.10;;;22.80;99.90;;;;;;5072901;28;20015;-49
2022/10/31 05:12:29;;;;;;;18.85;9.48;;;22.80;99.90;;;;;;5073192;28;20028;-48
2022/10/31 05:14:54;;;;;;;23.95;9.68;;;22.90;99.90;;;;;;5072543;28;20416;-48
2022/10/31 05:17:20;;;;;;;21.88;10.55;;;22.90;99.90;;;;;;5072640;28;20028;-48
2022/10/31 05:19:46;;;;;;;24.77;12.80;;;22.90;99.90;;;;;;5072702;28;20112;-47
2022/10/31 05:22:11;;;;;;;19.95;10.05;;;22.90;99.90;;;;;;5072688;28;20043;-48
2022/10/31 05:24:37;;;;;;;22.15;10.95;;;22.90;99.90;;;;;;5072942;28;20053;-47
2022/10/31 05:27:03;;;;;;;26.05;10.88;;;22.90;99.90;;;;;;5072651;28;20411;-48
2022/10/31 05:29:33;;;;;;;20.58;9.93;;;22.90;99.90;;;;;;5076048;28;20024;-48
2022/10/31 05:31:59;;;;;;;23.20;12.45;;;23.00;99.90;;;;;;5072225;28;20050;-48
2022/10/31 05:34:24;;;;;;;20.63;9.85;;;22.90;99.90;;;;;;5075652;28;20577;-48
2022/10/31 05:36:50;;;;;;;15.07;8.77;;;22.90;99.90;;;;;;5076848;28;20042;-47
2022/10/31 05:39:16;;;;;;;24.60;10.43;;;22.90;99.90;;;;;;5076722;28;20074;-48
2022/10/31 05:41:41;;;;;;;18.65;9.27;;;23.00;99.90;;;;;;5076467;28;20037;-47
2022/10/31 05:44:07;;;;;;;23.33;8.88;;;23.00;99.90;;;;;;5076599;28;20460;-47
2022/10/31 05:46:33;;;;;;;26.88;9.15;;;23.00;99.90;;;;;;5076821;28;20029;-47
2022/10/31 05:48:59;;;;;;;17.45;10.23;;;23.00;99.90;;;;;;5076531;28;20504;-48
2022/10/31 05:51:24;;;;;;;23.45;8.98;;;23.00;99.90;;;;;;5076475;28;20051;-47
2022/10/31 05:53:50;;;;;;;18.67;10.20;;;23.00;99.90;;;;;;5076254;28;20055;-47
2022/10/31 05:56:16;;;;;;;20.15;9.70;;;23.00;99.90;;;;;;5076268;28;20516;-47
2022/10/31 05:58:42;;;;;;;17.73;9.23;;;23.00;99.90;;;;;;5076203;28;20021;-47
2022/10/31 06:01:07;;;;;;;25.52;9.30;;;23.00;99.90;;;;;;5075981;28;20440;-47
2022/10/31 06:03:33;;;;;;;19.33;9.43;;;23.00;99.90;;;;;;5074983;28;20024;-49
2022/10/31 06:05:59;;;;;;;19.45;9.55;;;23.00;99.90;;;;;;5076266;28;20070;-48
2022/10/31 06:08:25;;;;;;;19.60;9.25;;;23.00;99.90;;;;;;5075815;28;20025;-49
2022/10/31 06:10:52;;;;;;;16.33;9.30;;;23.00;99.90;;;;;;5076051;28;20016;-49
2022/10/31 06:13:18;;;;;;;18.42;8.75;;;23.00;99.90;;;;;;5076040;28;20421;-49
2022/10/31 06:15:44;;;;;;;21.60;9.82;;;23.00;99.90;;;;;;5075929;28;20059;-48
2022/10/31 06:18:10;;;;;;;20.77;9.27;;;23.00;99.90;;;;;;5075924;28;20094;-48
2022/10/31 06:20:36;;;;;;;19.27;9.50;;;23.00;99.90;;;;;;5075761;28;20103;-49
2022/10/31 06:23:02;;;;;;;22.90;9.13;;;23.00;99.90;;;;;;5075743;28;20031;-47
2022/10/31 06:25:28;;;;;;;28.30;9.60;;;23.00;99.90;;;;;;5075700;28;20020;-48
2022/10/31 06:27:54;;;;;;;25.10;9.07;;;23.00;99.90;;;;;;5075670;28;20124;-47
2022/10/31 06:30:20;;;;;;;17.88;9.23;;;22.90;99.90;;;;;;5075771;28;20045;-47
2022/10/31 06:32:46;;;;;;;25.85;10.63;;;22.90;99.90;;;;;;5075698;28;20074;-47
2022/10/31 06:35:12;;;;;;;16.40;8.93;;;22.90;99.90;;;;;;5075583;28;20024;-48
2022/10/31 06:37:38;;;;;;;23.95;9.73;;;23.00;99.90;;;;;;5075486;28;20017;-48
2022/10/31 06:40:04;;;;;;;28.00;9.52;;;23.00;99.90;;;;;;5074888;28;20098;-48
2022/10/31 06:42:30;;;;;;;26.83;10.45;;;22.90;99.90;;;;;;5057723;28;20019;-48
2022/10/31 06:44:55;;;;;;;29.52;12.05;;;22.90;99.90;;;;;;5075376;28;20095;-47
2022/10/31 06:47:21;;;;;;;23.38;10.30;;;22.90;99.90;;;;;;5075398;28;20371;-48
2022/10/31 06:49:47;;;;;;;24.10;10.25;;;22.90;99.90;;;;;;5075238;28;20016;-47
2022/10/31 06:52:12;;;;;;;19.92;9.82;;;23.00;99.90;;;;;;5075283;28;20025;-47
2022/10/31 06:54:38;;;;;;;20.45;9.93;;;22.90;99.90;;;;;;5057247;28;20099;-47
2022/10/31 06:57:04;;;;;;;22.50;9.50;;;22.90;99.90;;;;;;5053762;28;20021;-47
2022/10/31 06:59:29;;;;;;;28.52;10.27;;;22.90;99.90;;;;;;5071553;28;20032;-49
2022/10/31 07:01:57;;;;;;;17.95;9.32;;;22.90;99.90;;;;;;5075069;28;20056;-48
2022/10/31 07:04:23;;;;;;;24.08;9.38;;;22.90;99.90;;;;;;5075210;28;20021;-48
2022/10/31 07:06:51;;;;;;;22.42;9.65;;;22.90;99.90;;;;;;5074857;28;20039;-50
2022/10/31 07:09:17;;;;;;;25.15;13.98;;;22.80;99.90;;;;;;5074907;28;20468;-48
2022/10/31 07:11:43;;;;;;;29.00;18.85;;;22.80;99.90;;;;;;5074992;28;20077;-48
2022/10/31 07:14:09;;;;;;;30.88;17.50;;;22.80;99.90;;;;;;5074683;28;20020;-47
2022/10/31 07:16:34;;;;;;;31.73;16.50;;;22.80;99.90;;;;;;5057097;28;20036;-48
2022/10/31 07:19:00;;;;;;;25.65;14.57;;;22.80;99.90;;;;;;5074772;28;20117;-47
2022/10/31 07:21:26;;;;;;;22.15;11.27;;;22.80;99.90;;;;;;5074498;28;20031;-48
2022/10/31 07:23:51;;;;;;;24.30;11.68;;;22.80;99.90;;;;;;5074569;28;20108;-48
2022/10/31 07:26:17;;;;;;;23.75;12.52;;;22.80;99.90;;;;;;5074285;28;20048;-48
2022/10/31 07:28:43;;;;;;;22.15;12.02;;;22.80;99.90;;;;;;5074464;28;20038;-48
2022/10/31 07:31:08;;;;;;;22.10;12.18;;;22.80;99.90;;;;;;5074576;28;20042;-48
2022/10/31 07:33:34;;;;;;;27.55;10.90;;;22.80;99.90;;;;;;5074172;28;20103;-48
2022/10/31 07:36:00;;;;;;;25.13;11.90;;;22.80;99.90;;;;;;5074524;28;20476;-48
2022/10/31 07:38:26;;;;;;;14.23;10.23;;;22.80;99.90;;;;;;5074517;28;20035;-48
2022/10/31 07:40:52;;;;;;;19.80;11.40;;;22.90;99.90;;;;;;5074010;28;20094;-48
2022/10/31 07:43:18;;;;;;;23.08;11.63;;;22.90;99.90;;;;;;5074429;28;20024;-48
2022/10/31 07:45:48;;;;;;;29.70;15.02;;;22.90;99.90;;;;;;5072721;28;20468;-47
2022/10/31 07:48:14;;;;;;;27.52;12.85;;;22.90;99.90;;;;;;5074326;28;20070;-47
2022/10/31 07:50:40;;;;;;;30.38;15.90;;;22.80;99.90;;;;;;5073268;28;20029;-48
2022/10/31 07:53:10;;;;;;;33.13;15.43;;;22.80;99.90;;;;;;5073941;28;20027;-48
2022/10/31 07:55:37;;;;;;;18.80;11.60;;;22.80;99.90;;;;;;5074123;28;20039;-48
2022/10/31 07:58:05;;;;;;;29.58;17.10;;;22.80;99.90;;;;;;5073827;28;20019;-48
2022/10/31 08:00:32;;;;;;;34.25;19.83;;;22.80;99.90;;;;;;5073762;28;20040;-47
2022/10/31 08:03:00;;;;;;;28.15;11.68;;;22.80;99.90;;;;;;5072463;28;20050;-47
2022/10/31 08:05:26;;;;;;;29.90;17.33;;;22.80;99.90;;;;;;5073714;28;20016;-47
2022/10/31 08:07:52;;;;;;;31.00;13.95;;;22.80;99.90;;;;;;5073702;28;20024;-47
2022/10/31 08:10:17;;;;;;;31.83;15.45;;;22.90;99.90;;;;;;5072281;28;20472;-47
2022/10/31 08:12:43;;;;;;;22.42;10.73;;;22.90;99.90;;;;;;5073811;28;20038;-48
2022/10/31 08:15:09;;;;;;;28.55;13.40;;;22.90;99.90;;;;;;5073617;28;20031;-47
2022/10/31 08:17:36;;;;;;;27.33;13.50;;;22.90;99.90;;;;;;5073480;28;20032;-45
2022/10/31 08:20:03;;;;;;;21.95;10.45;;;23.00;99.90;;;;;;5073496;28;20028;-47
2022/10/31 08:22:28;;;;;;;29.17;15.13;;;23.00;99.90;;;;;;5073438;28;20037;-47
2022/10/31 08:24:54;;;;;;;27.52;16.73;;;23.00;99.90;;;;;;5055599;28;20570;-47
2022/10/31 08:27:20;;;;;;;30.33;16.88;;;23.00;99.90;;;;;;5073330;28;20442;-47
2022/10/31 08:29:46;;;;;;;22.75;12.07;;;23.00;99.90;;;;;;5073318;28;20020;-47
2022/10/31 08:32:11;;;;;;;23.30;11.98;;;23.00;99.90;;;;;;5073365;28;20476;-48
2022/10/31 08:34:37;;;;;;;20.88;8.85;;;23.00;99.90;;;;;;5055529;28;20032;-47
2022/10/31 08:37:03;;;;;;;23.10;11.43;;;23.00;99.90;;;;;;5073412;28;20032;-48
2022/10/31 08:39:29;;;;;;;24.33;13.65;;;23.00;99.90;;;;;;5073360;28;20021;-48
2022/10/31 08:41:54;;;;;;;20.27;10.65;;;23.00;99.90;;;;;;5073043;28;20036;-47
2022/10/31 08:44:20;;;;;;;20.85;10.25;;;23.00;99.90;;;;;;5073210;28;20040;-49
2022/10/31 08:46:46;;;;;;;31.85;18.55;;;23.00;99.90;;;;;;5073099;28;20484;-47
2022/10/31 08:49:11;;;;;;;27.02;10.40;;;23.00;99.90;;;;;;5072981;28;20034;-47
2022/10/31 08:51:37;;;;;;;24.75;9.85;;;23.10;99.90;;;;;;5073034;28;20017;-47
2022/10/31 08:54:03;;;;;;;23.95;9.35;;;23.10;99.90;;;;;;5071837;28;20025;-48
2022/10/31 08:56:29;;;;;;;23.30;9.15;;;23.10;99.90;;;;;;5072832;28;20030;-47
2022/10/31 08:58:55;;;;;;;25.90;10.95;;;23.20;99.90;;;;;;5072861;28;20023;-47
2022/10/31 09:01:20;;;;;;;24.45;11.13;;;23.20;99.90;;;;;;5072465;28;20036;-48
2022/10/31 09:03:46;;;;;;;22.40;9.27;;;23.20;99.90;;;;;;5072756;28;20032;-47
2022/10/31 09:06:12;;;;;;;31.42;10.13;;;23.30;99.90;;;;;;5072867;28;20108;-48
2022/10/31 09:08:38;;;;;;;22.02;9.75;;;23.40;99.90;;;;;;5072709;28;20108;-47
2022/10/31 09:11:04;;;;;;;29.63;9.80;;;23.30;99.90;;;;;;5072979;28;20029;-47
2022/10/31 09:13:30;;;;;;;30.83;9.65;;;23.40;99.90;;;;;;5071398;28;20021;-47
2022/10/31 09:15:58;;;;;;;21.20;9.00;;;23.40;99.90;;;;;;5072891;28;20032;-47
2022/10/31 09:18:24;;;;;;;19.02;8.35;;;23.40;99.90;;;;;;5072730;28;20130;-47
2022/10/31 09:20:50;;;;;;;24.25;9.43;;;23.40;99.90;;;;;;5072454;28;20075;-47
2022/10/31 09:23:19;;;;;;;19.52;8.30;;;23.50;99.90;;;;;;5072815;28;20177;-47
2022/10/31 09:25:46;;;;;;;18.35;9.43;;;23.50;99.90;;;;;;5071346;28;20376;-50
2022/10/31 09:28:14;;;;;;;20.15;9.25;;;23.50;99.90;;;;;;5054768;28;20099;-47
2022/10/31 09:30:39;;;;;;;;;;;23.50;99.90;;;;;;5073170;28;20035;-47
2022/10/31 09:33:09;;;;;;;27.85;10.02;;;23.50;99.90;;;;;;5072708;28;19998;-49
2022/10/31 09:35:34;;;;;;;19.73;10.18;;;23.50;99.90;;;;;;5072594;28;20027;-47
2022/10/31 09:38:02;;;;;;;12.68;7.18;;;23.50;99.90;;;;;;5072612;28;20024;-47
2022/10/31 09:40:31;;;;;;;;;;;23.50;99.90;;;;;;5072873;28;20047;-47
2022/10/31 09:43:17;;;;;;;24.70;9.73;;;23.50;99.90;;;;;;5072716;28;20453;-47
2022/10/31 09:45:59;;;;;;;15.55;9.07;;;23.50;99.90;;;;;;5072151;28;20056;-47
2022/10/31 09:48:42;;;;;;;22.23;8.95;;;23.50;99.90;;;;;;5072247;28;20046;-48
2022/10/31 09:51:22;;;;;;;21.65;8.65;;;23.50;99.90;;;;;;5072252;28;20035;-47
2022/10/31 09:54:14;;;;;;;17.58;10.45;;;23.50;99.90;;;;;;5072367;28;20074;-47
2022/10/31 09:56:41;;;;;;;17.85;8.45;;;23.50;99.90;;;;;;5072269;28;20044;-47
2022/10/31 09:59:24;;;;;;;30.88;10.00;;;23.50;99.90;;;;;;5072417;28;20050;-48
2022/10/31 10:02:17;;;;;;;19.67;8.55;;;23.50;99.90;;;;;;5032247;28;20056;-47
2022/10/31 10:04:57;;;;;;;17.02;8.75;;;23.60;99.90;;;;;;5032278;28;20030;-48
2022/10/31 10:07:39;;;;;;;19.10;8.57;;;23.50;99.90;;;;;;5032335;28;20021;-47
2022/10/31 10:10:49;;;;;;;17.67;9.52;;;23.60;99.90;;;;;;5032174;28;20428;-47
2022/10/31 10:13:38;;;;;;;22.40;8.95;;;23.60;99.90;;;;;;5024330;28;20477;-48
2022/10/31 10:16:21;;;;;;;20.15;10.20;;;23.60;99.90;;;;;;5036023;28;20022;-47
2022/10/31 10:19:01;;;;;;;16.85;9.93;;;23.60;99.90;;;;;;5035734;28;20032;-50
2022/10/31 10:21:30;;;;;;;23.42;10.07;;;23.60;99.90;;;;;;5035658;28;20044;-47
2022/10/31 10:24:08;;;;;;;24.63;9.45;;;23.70;99.90;;;;;;5035914;28;20029;-47
2022/10/31 10:26:42;;;;;;;27.27;13.52;;;23.70;99.90;;;;;;5035946;28;20501;-47
2022/10/31 10:29:47;;;;;;;22.85;11.57;;;23.70;99.90;;;;;;5051473;28;20036;-47
2022/10/31 10:32:25;;;;;;;17.38;10.65;;;23.80;99.90;;;;;;5051158;28;20025;-48
2022/10/31 10:35:17;;;;;;;26.20;11.15;;;23.80;99.90;;;;;;5035665;28;20116;-47
2022/10/31 10:37:46;;;;;;;22.38;9.07;;;23.80;99.90;;;;;;5011673;28;20026;-47
2022/10/31 10:40:19;;;;;;;25.38;11.55;;;23.80;99.90;;;;;;5035436;28;20055;-48
2022/10/31 10:48:49;;;;;;;28.07;10.50;;;23.90;99.90;;;;;;5035615;28;20055;-47
2022/10/31 10:51:37;;;;;;;20.65;9.52;;;23.90;99.90;;;;;;5035211;28;20022;-47
2022/10/31 10:54:28;;;;;;;19.95;12.30;;;23.90;99.90;;;;;;5035358;28;20473;-47
2022/10/31 10:57:29;;;;;;;16.52;9.10;;;24.00;99.90;;;;;;5021628;28;20033;-48
2022/10/31 10:59:55;;;;;;;24.38;9.25;;;24.10;99.90;;;;;;5043965;28;20119;-48
2022/10/31 11:02:26;;;;;;;18.25;8.77;;;24.10;99.90;;;;;;5074812;28;20178;-47
2022/10/31 11:04:56;;;;;;;22.33;9.02;;;24.20;99.90;;;;;;5073604;28;20028;-47
2022/10/31 11:07:22;;;;;;;22.70;9.63;;;24.20;99.90;;;;;;5075001;28;20017;-47
2022/10/31 11:09:48;;;;;;;26.70;11.18;;;24.30;99.90;;;;;;5074820;28;20021;-47
2022/10/31 11:12:21;;;;;;;20.83;12.43;;;24.40;99.90;;;;;;5056908;28;20052;-47
2022/10/31 11:15:00;;;;;;;23.38;9.27;;;24.40;99.90;;;;;;5074719;28;20031;-47
2022/10/31 11:17:40;;;;;;;18.88;10.00;;;24.50;99.90;;;;;;5074887;28;20017;-48
2022/10/31 11:20:12;;;;;;;24.83;9.63;;;24.50;99.90;;;;;;5074645;28;20103;-47
2022/10/31 11:22:38;;;;;;;20.17;10.82;;;24.50;99.90;;;;;;5074668;28;20387;-47
2022/10/31 11:25:25;;;;;;;21.67;9.57;;;24.60;99.90;;;;;;5074377;28;20016;-47
2022/10/31 11:28:01;;;;;;;14.13;9.52;;;24.60;99.90;;;;;;5074429;28;20039;-48
2022/10/31 11:30:28;;;;;;;18.20;9.10;;;24.60;99.90;;;;;;5074395;28;20024;-48
2022/10/31 11:32:54;;;;;;;31.30;19.00;;;24.50;99.90;;;;;;5074196;28;20116;-48
2022/10/31 11:35:22;;;;;;;24.52;8.73;;;24.50;99.90;;;;;;5074196;28;20052;-48
2022/10/31 11:37:51;;;;;;;23.17;10.15;;;24.50;99.90;;;;;;5056556;28;20383;-48
2022/10/31 11:40:25;;;;;;;19.27;9.73;;;24.50;99.90;;;;;;5074196;28;20017;-48
2022/10/31 11:42:56;;;;;;;15.50;8.80;;;24.50;99.90;;;;;;5074227;28;20432;-47
2022/10/31 11:45:22;;;;;;;20.45;9.38;;;24.50;99.90;;;;;;5074186;28;20070;-47
2022/10/31 11:47:52;;;;;;;20.83;9.18;;;24.50;99.90;;;;;;5074091;28;20423;-48
2022/10/31 11:50:42;;;;;;;22.65;9.00;;;24.40;99.90;;;;;;5074069;28;20044;-48
2022/10/31 11:53:37;;;;;;;21.83;12.50;;;24.50;99.90;;;;;;5068588;28;20032;-48
2022/10/31 11:56:15;;;;;;;18.33;8.35;;;24.50;99.90;;;;;;5060780;28;20032;-47
2022/10/31 11:58:42;;;;;;;18.80;7.88;;;24.50;99.90;;;;;;5072671;28;20017;-48
2022/10/31 12:01:27;;;;;;;18.48;7.80;;;24.40;99.90;;;;;;5073823;28;20083;-47
2022/10/31 12:04:02;;;;;;;19.00;8.23;;;24.40;99.90;;;;;;5073835;28;20017;-52
2022/10/31 12:06:49;;;;;;;21.08;9.90;;;24.40;99.90;;;;;;5073851;28;20017;-50
2022/10/31 12:09:21;;;;;;;20.38;8.85;;;24.40;99.90;;;;;;5073636;28;20032;-52
2022/10/31 12:12:31;;;;;;;25.00;8.70;;;24.30;99.90;;;;;;5073771;28;20044;-52
2022/10/31 12:15:32;;;;;;;18.08;9.75;;;24.30;99.90;;;;;;5042660;28;20032;-52
2022/10/31 12:18:03;;;;;;;14.98;9.68;;;24.30;99.90;;;;;;5070772;28;20036;-48
2022/10/31 12:21:02;;;;;;;19.88;9.15;;;24.30;99.90;;;;;;5073387;28;20135;-49
2022/10/31 12:23:54;;;;;;;18.85;9.07;;;24.20;99.90;;;;;;5073135;28;20480;-50
2022/10/31 12:26:45;;;;;;;18.40;9.27;;;24.20;99.90;;;;;;5035725;28;20041;-49
2022/10/31 12:29:36;;;;;;;19.75;9.18;;;24.20;99.90;;;;;;5054583;28;20492;-51
2022/10/31 12:32:23;;;;;;;21.75;9.80;;;24.10;99.90;;;;;;5070878;28;20028;-50
2022/10/31 12:35:20;;;;;;;16.50;9.23;;;24.10;99.90;;;;;;5064426;28;20028;-50
2022/10/31 12:38:02;;;;;;;24.52;13.55;;;24.10;99.90;;;;;;5061184;28;20554;-51
2022/10/31 12:40:49;;;;;;;25.67;9.95;;;24.00;99.90;;;;;;5071598;28;20040;-49
2022/10/31 12:43:33;;;;;;;21.20;9.65;;;24.00;99.90;;;;;;5072817;28;20054;-53
2022/10/31 12:46:01;;;;;;;21.08;8.88;;;24.00;99.90;;;;;;5059214;28;20029;-53
2022/10/31 12:48:46;;;;;;;18.13;8.10;;;23.90;99.90;;;;;;5072692;28;20036;-52
2022/10/31 12:51:19;;;;;;;16.33;9.20;;;23.90;99.90;;;;;;5073025;28;20034;-52
2022/10/31 12:53:50;;;;;;;17.95;9.00;;;24.00;99.90;;;;;;5073081;28;20024;-49
2022/10/31 12:56:32;;;;;;;16.33;10.00;;;24.00;99.90;;;;;;5072491;28;20024;-50
2022/10/31 12:59:08;;;;;;;18.83;9.38;;;24.10;99.90;;;;;;5071425;28;20024;-50
2022/10/31 13:01:40;;;;;;;15.32;7.63;;;24.10;99.90;;;;;;5072654;28;20040;-49